Time;durP1;ratioP1;P1;durP2;ratioP2;P2;SDS_P1;SDS_P2;PMS_P1;PMS_P2;Temp;Humidity;BMP_temperature;BMP_pressure;BME280_temperature;BME280_humidity;BME280_pressure;Samples;Min_cycle;Max_cycle;Signal;HPM_P1;HPM_P2
2022/08/31 00:05:32;;;;;;;11.60;8.07;;;16.20;99.90;;;;;;5043434;28;20050;-48
2022/08/31 00:07:58;;;;;;;11.95;7.32;;;16.30;99.90;;;;;;5054102;28;20029;-47
2022/08/31 00:10:28;;;;;;;10.20;6.55;;;16.30;99.90;;;;;;5053550;28;20045;-48
2022/08/31 00:13:03;;;;;;;14.48;7.40;;;16.30;99.90;;;;;;5054950;28;20129;-48
2022/08/31 00:15:33;;;;;;;11.40;7.10;;;16.40;99.90;;;;;;5052989;28;20413;-48
2022/08/31 00:18:00;;;;;;;10.23;6.75;;;16.50;99.90;;;;;;5054704;28;20401;-48
2022/08/31 00:20:27;;;;;;;11.48;7.45;;;16.50;99.90;;;;;;5054583;28;20045;-52
2022/08/31 00:23:09;;;;;;;11.27;6.70;;;16.50;99.90;;;;;;5050725;28;20069;-48
2022/08/31 00:25:39;;;;;;;13.18;7.32;;;16.60;99.90;;;;;;5053295;28;20041;-48
2022/08/31 00:28:07;;;;;;;9.95;7.43;;;16.60;99.90;;;;;;5054023;28;20041;-49
2022/08/31 00:30:34;;;;;;;12.95;7.80;;;16.70;99.90;;;;;;5053303;28;20037;-48
2022/08/31 00:33:01;;;;;;;12.07;8.13;;;16.70;99.90;;;;;;5040683;28;20053;-49
2022/08/31 00:35:29;;;;;;;15.23;8.35;;;16.70;99.90;;;;;;5036198;28;20044;-48
2022/08/31 00:37:59;;;;;;;11.85;8.13;;;16.70;99.90;;;;;;5033724;28;20405;-47
2022/08/31 00:40:26;;;;;;;14.18;8.27;;;16.60;99.90;;;;;;5036089;28;20049;-47
2022/08/31 00:42:53;;;;;;;11.82;8.18;;;16.70;99.90;;;;;;5053895;28;20045;-48
2022/08/31 00:45:21;;;;;;;9.20;7.18;;;16.70;99.90;;;;;;5035543;28;20382;-48
2022/08/31 00:47:49;;;;;;;11.30;7.45;;;16.70;99.90;;;;;;5050855;28;20043;-47
2022/08/31 00:50:18;;;;;;;11.63;6.88;;;16.60;99.90;;;;;;5036035;28;20048;-48
2022/08/31 00:52:51;;;;;;;10.75;6.28;;;16.60;99.90;;;;;;5053652;28;20037;-50
2022/08/31 00:55:44;;;;;;;12.57;8.30;;;16.70;99.90;;;;;;5051877;28;20063;-48
2022/08/31 00:58:12;;;;;;;12.48;7.18;;;16.50;99.90;;;;;;5050303;28;20064;-48
2022/08/31 01:00:41;;;;;;;11.18;7.10;;;16.50;99.90;;;;;;5053565;28;20140;-48
2022/08/31 01:03:09;;;;;;;12.15;7.20;;;16.50;99.90;;;;;;5053898;28;20092;-48
2022/08/31 01:05:37;;;;;;;13.85;7.63;;;16.50;99.90;;;;;;5032471;28;20048;-47
2022/08/31 01:08:04;;;;;;;12.40;8.13;;;16.50;99.90;;;;;;5051974;28;20056;-47
2022/08/31 01:10:36;;;;;;;16.63;8.55;;;16.40;99.90;;;;;;5049906;28;20060;-48
2022/08/31 01:13:04;;;;;;;14.70;7.88;;;16.30;99.90;;;;;;5035829;28;20453;-48
2022/08/31 01:15:32;;;;;;;10.85;7.50;;;16.20;99.90;;;;;;5050676;28;20040;-47
2022/08/31 01:18:05;;;;;;;11.68;7.28;;;16.10;99.90;;;;;;5053533;28;20056;-47
2022/08/31 01:20:47;;;;;;;11.35;7.43;;;16.20;99.90;;;;;;5053179;28;20041;-49
2022/08/31 01:23:37;;;;;;;13.50;8.77;;;16.20;99.90;;;;;;5051207;28;20041;-47
2022/08/31 01:26:06;;;;;;;13.48;8.93;;;16.20;99.90;;;;;;5034471;28;20041;-48
2022/08/31 01:28:33;;;;;;;11.98;8.45;;;16.20;99.90;;;;;;5035328;28;20056;-48
2022/08/31 01:31:09;;;;;;;12.55;8.35;;;16.10;99.90;;;;;;5033936;28;20033;-48
2022/08/31 01:33:38;;;;;;;13.95;8.23;;;16.10;99.90;;;;;;5034940;28;20068;-48
2022/08/31 01:36:07;;;;;;;11.60;7.40;;;16.10;99.90;;;;;;5034674;28;20051;-48
2022/08/31 01:38:36;;;;;;;10.73;6.75;;;16.10;99.90;;;;;;5052088;28;20073;-49
2022/08/31 01:41:03;;;;;;;11.73;7.40;;;16.10;99.90;;;;;;5052967;28;20053;-48
2022/08/31 01:43:34;;;;;;;9.50;6.68;;;16.20;99.90;;;;;;5033947;28;20060;-48
2022/08/31 01:46:03;;;;;;;16.83;6.93;;;16.30;99.90;;;;;;5047016;28;20045;-47
2022/08/31 01:48:31;;;;;;;10.73;8.00;;;16.30;99.90;;;;;;5053191;28;20055;-47
2022/08/31 01:50:58;;;;;;;12.05;8.48;;;16.30;99.90;;;;;;5033261;28;20043;-47
2022/08/31 01:53:25;;;;;;;15.00;7.72;;;16.30;99.90;;;;;;5035004;28;20052;-49
2022/08/31 01:55:52;;;;;;;11.88;8.10;;;16.20;99.90;;;;;;5033976;28;20059;-47
2022/08/31 01:58:18;;;;;;;12.95;8.75;;;16.20;99.90;;;;;;5034955;28;20041;-48
2022/08/31 02:01:05;;;;;;;13.35;7.75;;;16.20;99.90;;;;;;5051898;28;20051;-47
2022/08/31 02:03:52;;;;;;;12.67;7.50;;;16.20;99.90;;;;;;5014619;28;20050;-48
2022/08/31 02:06:23;;;;;;;9.00;6.78;;;16.20;99.90;;;;;;5016939;28;20037;-48
2022/08/31 02:08:50;;;;;;;11.27;7.25;;;16.30;99.90;;;;;;5052387;28;20048;-48
2022/08/31 02:11:17;;;;;;;14.07;7.20;;;16.40;99.90;;;;;;5050019;28;20113;-48
2022/08/31 02:13:44;;;;;;;13.68;6.78;;;16.40;99.90;;;;;;5033920;28;20374;-47
2022/08/31 02:16:13;;;;;;;14.07;7.05;;;16.50;99.90;;;;;;5033396;28;20041;-48
2022/08/31 02:18:40;;;;;;;16.83;8.65;;;16.50;99.90;;;;;;5034687;28;20049;-48
2022/08/31 02:21:07;;;;;;;12.82;8.30;;;16.50;99.90;;;;;;5030524;28;20037;-48
2022/08/31 02:23:34;;;;;;;14.50;8.55;;;16.40;99.90;;;;;;5032761;28;20056;-49
2022/08/31 02:26:01;;;;;;;13.60;8.93;;;16.30;99.90;;;;;;5045021;28;20397;-48
2022/08/31 02:28:27;;;;;;;13.63;7.63;;;16.30;99.90;;;;;;5044423;28;20120;-48
2022/08/31 02:30:54;;;;;;;12.88;7.97;;;16.30;99.90;;;;;;5046757;28;20060;-47
2022/08/31 02:33:21;;;;;;;13.88;7.68;;;16.30;99.90;;;;;;5052340;28;20045;-48
2022/08/31 02:35:48;;;;;;;11.88;6.80;;;16.40;99.90;;;;;;5053311;28;20052;-48
2022/08/31 02:38:21;;;;;;;12.45;7.88;;;16.40;99.90;;;;;;5035334;28;20045;-48
2022/08/31 02:40:50;;;;;;;10.00;7.45;;;16.60;99.90;;;;;;5034019;28;20055;-49
2022/08/31 02:43:17;;;;;;;10.20;6.38;;;16.60;99.90;;;;;;5033556;28;20559;-48
2022/08/31 02:45:50;;;;;;;8.30;6.20;;;16.60;99.90;;;;;;5033012;28;20440;-48
2022/08/31 02:48:24;;;;;;;8.60;5.97;;;16.60;99.90;;;;;;5033750;28;20041;-48
2022/08/31 02:50:52;;;;;;;8.77;6.25;;;16.60;99.90;;;;;;5033790;28;20045;-47
2022/08/31 02:53:21;;;;;;;11.18;6.20;;;16.70;99.90;;;;;;5033853;28;20047;-47
2022/08/31 02:55:49;;;;;;;9.75;6.90;;;16.60;99.90;;;;;;5032006;28;20048;-48
2022/08/31 02:58:15;;;;;;;10.93;6.72;;;16.70;99.90;;;;;;5033775;28;20056;-47
2022/08/31 03:00:47;;;;;;;9.27;5.63;;;16.60;99.90;;;;;;5046757;28;20049;-48
2022/08/31 03:03:16;;;;;;;12.65;6.30;;;16.70;99.90;;;;;;5025693;28;20049;-47
2022/08/31 03:05:43;;;;;;;10.32;6.50;;;16.50;99.90;;;;;;5029170;28;20044;-51
2022/08/31 03:08:10;;;;;;;8.40;5.43;;;16.70;99.90;;;;;;5046812;28;20068;-48
2022/08/31 03:10:37;;;;;;;8.85;6.30;;;16.70;99.90;;;;;;5032535;28;20044;-47
2022/08/31 03:13:04;;;;;;;8.75;5.60;;;16.70;99.90;;;;;;5032915;28;20079;-48
2022/08/31 03:15:31;;;;;;;9.23;6.80;;;16.70;99.90;;;;;;5025467;28;20045;-48
2022/08/31 03:18:01;;;;;;;9.45;6.25;;;16.70;99.90;;;;;;5049968;28;20048;-48
2022/08/31 03:20:32;;;;;;;9.45;6.57;;;16.70;99.90;;;;;;5032844;28;20053;-48
2022/08/31 03:23:01;;;;;;;12.52;6.82;;;16.70;99.90;;;;;;5028226;28;20041;-48
2022/08/31 03:25:29;;;;;;;9.00;6.50;;;16.70;99.90;;;;;;5029880;28;20558;-49
2022/08/31 03:27:56;;;;;;;10.43;7.28;;;16.60;99.90;;;;;;5028618;28;20037;-47
2022/08/31 03:30:25;;;;;;;9.93;6.38;;;16.60;99.90;;;;;;5029640;28;20040;-47
2022/08/31 03:33:02;;;;;;;7.53;5.25;;;16.70;99.90;;;;;;5038562;28;20401;-48
2022/08/31 03:35:32;;;;;;;7.55;5.20;;;16.60;99.90;;;;;;5038289;28;20057;-48
2022/08/31 03:38:01;;;;;;;8.07;5.10;;;16.70;99.90;;;;;;5035622;28;20063;-48
2022/08/31 03:40:29;;;;;;;7.60;4.50;;;16.70;99.90;;;;;;5056125;28;20037;-48
2022/08/31 03:42:59;;;;;;;8.05;4.85;;;16.70;99.90;;;;;;5038927;28;20170;-49
2022/08/31 03:45:27;;;;;;;7.13;4.35;;;16.80;99.90;;;;;;5038886;28;20075;-47
2022/08/31 03:47:54;;;;;;;;;;;16.80;99.90;;;;;;5037932;28;20440;-48
2022/08/31 03:50:23;;;;;;;7.90;4.72;;;16.80;99.90;;;;;;5036548;28;19933;-48
2022/08/31 03:53:03;;;;;;;8.63;4.90;;;16.90;99.90;;;;;;5039622;28;20041;-48
2022/08/31 03:55:31;;;;;;;6.90;3.83;;;16.90;99.90;;;;;;5037000;28;20053;-47
2022/08/31 03:57:58;;;;;;;7.03;3.72;;;16.90;99.90;;;;;;5038694;28;20598;-47
2022/08/31 04:00:25;;;;;;;;;;;16.90;99.90;;;;;;5038618;28;20082;-48
2022/08/31 04:03:00;;;;;;;7.15;4.30;;;16.90;99.90;;;;;;5039824;28;19920;-48
2022/08/31 04:05:34;;;;;;;7.80;4.93;;;16.90;99.90;;;;;;5054296;28;20045;-47
2022/08/31 04:08:14;;;;;;;6.15;4.68;;;16.90;99.90;;;;;;5057171;28;20386;-50
2022/08/31 04:10:46;;;;;;;8.30;4.68;;;16.80;99.90;;;;;;5055140;28;20049;-48
2022/08/31 04:13:32;;;;;;;6.13;4.28;;;16.90;99.90;;;;;;5056748;28;20055;-50
2022/08/31 04:16:20;;;;;;;6.57;4.30;;;16.90;99.90;;;;;;5053447;28;20187;-48
2022/08/31 04:19:07;;;;;;;6.35;4.10;;;16.80;99.90;;;;;;5051870;28;20056;-47
2022/08/31 04:21:42;;;;;;;7.95;4.57;;;16.70;99.90;;;;;;5038787;28;20049;-48
2022/08/31 04:24:10;;;;;;;7.95;4.30;;;16.80;99.90;;;;;;5054200;28;20044;-48
2022/08/31 04:26:39;;;;;;;5.85;4.32;;;16.80;99.90;;;;;;5036494;28;20033;-48
2022/08/31 04:29:07;;;;;;;7.82;4.97;;;16.80;99.90;;;;;;5053952;28;20047;-48
2022/08/31 04:31:39;;;;;;;7.25;4.40;;;16.70;99.90;;;;;;5036196;28;20043;-48
2022/08/31 04:34:06;;;;;;;8.38;4.95;;;16.80;99.90;;;;;;5031396;28;20042;-51
2022/08/31 04:36:34;;;;;;;7.93;4.88;;;16.70;99.90;;;;;;5050648;28;20112;-48
2022/08/31 04:39:02;;;;;;;6.78;5.25;;;16.70;99.90;;;;;;5035152;28;20143;-47
2022/08/31 04:41:31;;;;;;;7.07;5.57;;;16.60;99.90;;;;;;5037658;28;20505;-49
2022/08/31 04:43:59;;;;;;;9.95;6.40;;;16.60;99.90;;;;;;5034363;28;20148;-48
2022/08/31 04:46:27;;;;;;;8.63;6.30;;;16.50;99.90;;;;;;5032788;28;20048;-49
2022/08/31 04:48:55;;;;;;;10.35;6.03;;;16.50;99.90;;;;;;5049506;28;20041;-48
2022/08/31 04:51:34;;;;;;;9.43;5.85;;;16.50;99.90;;;;;;5029737;28;20037;-49
2022/08/31 04:54:07;;;;;;;8.07;5.15;;;16.40;99.90;;;;;;5029896;28;20069;-48
2022/08/31 04:56:37;;;;;;;8.00;5.72;;;16.40;99.90;;;;;;5032285;28;20037;-50
2022/08/31 04:59:07;;;;;;;7.30;5.85;;;16.40;99.90;;;;;;5033376;28;20516;-49
2022/08/31 05:01:41;;;;;;;9.48;5.88;;;16.50;99.90;;;;;;5043931;28;20581;-48
2022/08/31 05:04:35;;;;;;;11.30;6.50;;;16.50;99.90;;;;;;5035386;28;20059;-48
2022/08/31 05:07:02;;;;;;;9.40;5.80;;;16.50;99.90;;;;;;5033980;28;20067;-50
2022/08/31 05:09:29;;;;;;;10.10;6.43;;;16.50;99.90;;;;;;5018572;28;20037;-47
2022/08/31 05:11:56;;;;;;;8.93;6.00;;;16.50;99.90;;;;;;5034822;28;20051;-51
2022/08/31 05:14:24;;;;;;;10.10;6.75;;;16.50;99.90;;;;;;5034561;28;20106;-47
2022/08/31 05:17:01;;;;;;;9.18;5.10;;;16.60;99.90;;;;;;5030538;28;20498;-47
2022/08/31 05:19:30;;;;;;;6.85;5.03;;;16.60;99.90;;;;;;5034958;28;20052;-47
2022/08/31 05:21:57;;;;;;;;;;;16.60;99.90;;;;;;5032732;28;20041;-47
2022/08/31 05:24:24;;;;;;;7.35;5.10;;;16.70;99.90;;;;;;5033814;28;20018;-47
2022/08/31 05:26:54;;;;;;;7.13;4.82;;;16.70;99.90;;;;;;5032411;28;20083;-47
2022/08/31 05:29:24;;;;;;;11.13;5.60;;;16.70;99.90;;;;;;5047965;28;20505;-47
2022/08/31 05:32:14;;;;;;;10.85;5.72;;;16.70;99.90;;;;;;5045314;28;20056;-48
2022/08/31 05:34:40;;;;;;;9.07;5.38;;;16.70;99.90;;;;;;5034394;28;20497;-47
2022/08/31 05:37:07;;;;;;;11.48;7.28;;;16.70;99.90;;;;;;5034570;28;20076;-47
2022/08/31 05:39:35;;;;;;;14.10;6.85;;;16.70;99.90;;;;;;5032848;28;20056;-48
2022/08/31 05:42:02;;;;;;;;;;;16.70;99.90;;;;;;5034418;28;20044;-47
2022/08/31 05:44:33;;;;;;;10.77;6.68;;;16.70;99.90;;;;;;5048364;28;20011;-48
2022/08/31 05:47:00;;;;;;;8.88;6.40;;;16.70;99.90;;;;;;5029601;28;20048;-47
2022/08/31 05:49:31;;;;;;;11.50;7.38;;;16.70;99.90;;;;;;5031575;28;20049;-47
2022/08/31 05:51:59;;;;;;;10.02;6.15;;;16.70;99.90;;;;;;5033008;28;20095;-47
2022/08/31 05:54:27;;;;;;;10.80;6.65;;;16.80;99.90;;;;;;5016006;22;20105;-49
2022/08/31 05:56:54;;;;;;;9.50;6.65;;;16.80;99.90;;;;;;5001452;28;20076;-49
2022/08/31 05:59:27;;;;;;;9.60;6.70;;;16.80;99.90;;;;;;5012450;28;20075;-49
2022/08/31 06:01:54;;;;;;;10.60;5.65;;;16.80;99.90;;;;;;5013786;28;20038;-50
2022/08/31 06:04:25;;;;;;;9.80;6.70;;;16.80;99.90;;;;;;5011597;28;20080;-48
2022/08/31 06:06:52;;;;;;;8.73;5.63;;;16.80;99.90;;;;;;5012676;28;20052;-49
2022/08/31 06:09:23;;;;;;;10.15;6.13;;;16.80;99.90;;;;;;4994971;28;20376;-52
2022/08/31 06:11:51;;;;;;;10.63;6.78;;;16.90;99.90;;;;;;5028588;28;20048;-48
2022/08/31 06:14:21;;;;;;;8.90;5.70;;;16.90;99.90;;;;;;5009276;28;20497;-49
2022/08/31 06:16:49;;;;;;;8.73;5.53;;;16.90;99.90;;;;;;4991304;28;20097;-48
2022/08/31 06:19:18;;;;;;;8.15;5.03;;;16.90;99.90;;;;;;5013768;28;20069;-48
2022/08/31 06:21:49;;;;;;;7.03;4.57;;;16.90;99.90;;;;;;4994522;28;20136;-48
2022/08/31 06:24:24;;;;;;;10.65;5.13;;;16.90;99.90;;;;;;4992820;28;20057;-50
2022/08/31 06:26:55;;;;;;;9.00;5.47;;;16.90;99.90;;;;;;5010967;28;20177;-49
2022/08/31 06:29:30;;;;;;;8.55;5.55;;;16.90;99.90;;;;;;4992881;28;20132;-48
2022/08/31 06:31:59;;;;;;;9.00;5.32;;;17.00;99.90;;;;;;4994709;28;20384;-50
2022/08/31 06:34:27;;;;;;;8.18;5.75;;;16.90;99.90;;;;;;4993145;28;20060;-49
2022/08/31 06:37:12;;;;;;;8.60;5.80;;;17.00;99.90;;;;;;5001958;28;20493;-48
2022/08/31 06:39:54;;;;;;;8.95;5.65;;;17.00;99.90;;;;;;5002395;28;20046;-50
2022/08/31 06:42:30;;;;;;;9.48;5.22;;;17.00;99.90;;;;;;5010361;28;20041;-49
2022/08/31 06:45:10;;;;;;;8.23;5.40;;;17.10;99.90;;;;;;4993134;28;20053;-49
2022/08/31 06:48:09;;;;;;;8.70;5.93;;;17.10;99.90;;;;;;4989234;28;20433;-49
2022/08/31 06:50:39;;;;;;;9.27;5.20;;;17.10;99.90;;;;;;4994043;28;20508;-52
2022/08/31 06:53:06;;;;;;;11.10;5.97;;;17.20;99.90;;;;;;4993157;28;20131;-49
2022/08/31 06:55:56;;;;;;;9.82;6.20;;;17.20;99.90;;;;;;5008950;28;20517;-49
2022/08/31 06:58:53;;;;;;;10.63;5.90;;;17.20;99.90;;;;;;5031324;28;20422;-49
2022/08/31 07:01:38;;;;;;;10.90;6.53;;;17.20;99.90;;;;;;4996790;28;20053;-49
2022/08/31 07:04:20;;;;;;;8.32;5.57;;;17.20;99.90;;;;;;4993607;28;20458;-51
2022/08/31 07:06:46;;;;;;;11.52;6.18;;;17.20;99.90;;;;;;5008309;28;20114;-49
2022/08/31 07:09:16;;;;;;;10.13;5.78;;;17.20;99.90;;;;;;5008585;28;20056;-49
2022/08/31 07:11:46;;;;;;;9.23;6.40;;;17.30;99.90;;;;;;5028621;28;20494;-49
2022/08/31 07:14:15;;;;;;;11.93;6.72;;;17.30;99.90;;;;;;5013024;28;20340;-49
2022/08/31 07:16:43;;;;;;;10.73;6.10;;;17.30;99.90;;;;;;4996602;28;20485;-49
2022/08/31 07:19:11;;;;;;;11.88;6.53;;;17.40;99.90;;;;;;4993859;28;20056;-52
2022/08/31 07:21:41;;;;;;;17.05;6.53;;;17.30;99.90;;;;;;4993851;28;20045;-49
2022/08/31 07:24:10;;;;;;;11.10;6.57;;;17.40;99.90;;;;;;5011160;28;20049;-49
2022/08/31 07:26:44;;;;;;;9.95;6.43;;;17.40;99.90;;;;;;4992788;28;20047;-50
2022/08/31 07:29:14;;;;;;;11.02;6.35;;;17.40;99.90;;;;;;5010726;28;20083;-51
2022/08/31 07:31:49;;;;;;;9.30;6.20;;;17.40;99.90;;;;;;4996812;28;20064;-53
2022/08/31 07:34:19;;;;;;;9.45;6.07;;;17.50;99.90;;;;;;5008597;28;20049;-50
2022/08/31 07:42:42;;;;;;;12.40;6.93;;;17.70;99.90;;;;;;5001795;28;20096;-52
2022/08/31 07:45:20;;;;;;;12.32;7.10;;;17.80;99.90;;;;;;4992229;28;20122;-50
2022/08/31 07:47:51;;;;;;;11.38;6.53;;;17.80;99.90;;;;;;4993776;28;20073;-49
2022/08/31 07:50:25;;;;;;;16.13;7.82;;;17.80;99.90;;;;;;5028034;28;20034;-49
2022/08/31 07:53:11;;;;;;;13.27;6.88;;;17.80;99.90;;;;;;5013046;28;20050;-49
2022/08/31 07:55:46;;;;;;;13.82;7.20;;;17.70;99.90;;;;;;5012845;28;20133;-48
2022/08/31 07:58:38;;;;;;;12.10;7.22;;;17.80;99.90;;;;;;5010308;28;20520;-49
2022/08/31 08:01:07;;;;;;;11.18;6.93;;;17.80;99.90;;;;;;5001635;28;20046;-50
2022/08/31 08:03:34;;;;;;;10.18;6.10;;;17.80;99.90;;;;;;4992030;28;20335;-52
2022/08/31 08:06:20;;;;;;;10.70;6.28;;;17.90;99.90;;;;;;5010159;28;20132;-50
2022/08/31 08:09:06;;;;;;;9.65;6.30;;;18.10;99.90;;;;;;4992219;28;20053;-51
2022/08/31 08:12:05;;;;;;;8.83;5.60;;;18.10;99.90;;;;;;4973398;28;20046;-50
2022/08/31 08:14:53;;;;;;;9.45;5.05;;;18.20;99.90;;;;;;4992799;28;20056;-48
2022/08/31 08:17:40;;;;;;;11.00;5.13;;;18.30;99.90;;;;;;5013977;28;20100;-49
2022/08/31 08:20:09;;;;;;;7.60;5.35;;;18.40;99.90;;;;;;5013416;28;20409;-50
2022/08/31 08:22:42;;;;;;;13.48;5.50;;;18.40;99.90;;;;;;5016495;28;20095;-52
2022/08/31 08:25:29;;;;;;;;;;;18.50;99.90;;;;;;5020869;28;20038;-51
2022/08/31 08:28:17;;;;;;;9.23;5.65;;;18.50;99.90;;;;;;4996775;28;20015;-49
2022/08/31 08:31:09;;;;;;;10.25;6.13;;;18.40;99.90;;;;;;4995247;28;20104;-48
2022/08/31 08:33:36;;;;;;;7.05;4.70;;;18.50;99.90;;;;;;5009537;28;20050;-49
2022/08/31 08:36:06;;;;;;;6.40;4.47;;;18.60;99.90;;;;;;4985727;28;20042;-50
2022/08/31 08:38:36;;;;;;;6.60;4.70;;;18.80;99.90;;;;;;4996848;28;20045;-49
2022/08/31 08:41:10;;;;;;;8.25;5.28;;;18.80;99.90;;;;;;4995799;28;20042;-50
2022/08/31 08:43:41;;;;;;;8.60;5.32;;;19.00;99.90;;;;;;4990811;28;20046;-49
2022/08/31 08:46:13;;;;;;;9.77;5.60;;;19.00;99.90;;;;;;4998914;28;20065;-49
2022/08/31 08:49:13;;;;;;;6.90;5.32;;;19.10;99.90;;;;;;5031742;28;20041;-49
2022/08/31 08:51:42;;;;;;;8.65;5.15;;;19.10;99.90;;;;;;5015448;28;20605;-49
2022/08/31 08:54:13;;;;;;;9.85;5.22;;;19.30;99.90;;;;;;5015634;28;20041;-53
2022/08/31 08:56:47;;;;;;;12.52;5.90;;;19.40;99.90;;;;;;4996092;28;20061;-51
2022/08/31 08:59:19;;;;;;;10.85;6.63;;;19.40;99.90;;;;;;5012774;28;20057;-50
2022/08/31 09:01:52;;;;;;;11.60;5.93;;;19.50;99.90;;;;;;5014176;28;20448;-49
2022/08/31 09:04:38;;;;;;;8.85;5.45;;;19.50;99.90;;;;;;4993410;28;20056;-50
2022/08/31 09:07:43;;;;;;;11.10;4.95;;;19.40;99.90;;;;;;4995120;28;20072;-52
2022/08/31 09:10:30;;;;;;;9.98;5.25;;;19.50;99.90;;;;;;4986844;28;20045;-49
2022/08/31 09:13:31;;;;;;;10.68;5.82;;;19.50;99.90;;;;;;4991084;28;20133;-52
2022/08/31 09:16:07;;;;;;;9.57;5.50;;;19.60;99.90;;;;;;5012824;28;20046;-52
2022/08/31 09:18:52;;;;;;;11.02;5.72;;;19.50;99.90;;;;;;4996304;28;20132;-52
2022/08/31 09:21:32;;;;;;;10.18;6.05;;;19.50;99.90;;;;;;5010375;28;20148;-52
2022/08/31 09:24:09;;;;;;;14.38;7.05;;;19.40;99.90;;;;;;5012043;28;20053;-50
2022/08/31 09:27:17;;;;;;;11.30;7.05;;;19.30;99.90;;;;;;5006620;28;20091;-49
2022/08/31 09:29:44;;;;;;;10.75;7.22;;;19.20;99.90;;;;;;5033352;28;20065;-52
2022/08/31 09:32:21;;;;;;;9.27;6.80;;;19.20;99.90;;;;;;5032479;28;20496;-51
2022/08/31 09:35:00;;;;;;;10.25;6.63;;;19.20;99.90;;;;;;5025270;28;20076;-53
2022/08/31 09:37:51;;;;;;;10.70;7.38;;;19.10;99.90;;;;;;5012085;28;20056;-49
2022/08/31 09:40:30;;;;;;;13.50;7.22;;;19.00;99.90;;;;;;5012893;28;20064;-49
2022/08/31 09:43:37;;;;;;;15.05;9.63;;;18.90;99.90;;;;;;5012904;28;20116;-49
2022/08/31 09:46:47;;;;;;;16.92;10.48;;;18.70;99.90;;;;;;5013063;28;20130;-51
2022/08/31 09:49:23;;;;;;;16.73;11.40;;;18.70;99.90;;;;;;4930879;29;20043;-49
2022/08/31 09:51:51;;;;;;;23.17;13.98;;;18.50;99.90;;;;;;4933076;29;20051;-49
2022/08/31 09:57:12;;;;;;;24.85;14.27;;;18.30;99.90;;;;;;5014437;28;19984;-48
2022/08/31 09:59:43;;;;;;;27.13;15.02;;;18.30;99.90;;;;;;5012560;28;20056;-49
2022/08/31 10:02:21;;;;;;;26.42;16.42;;;18.20;99.90;;;;;;5012805;28;20049;-49
2022/08/31 10:04:50;;;;;;;28.27;17.13;;;18.20;99.90;;;;;;5011141;28;20042;-49
2022/08/31 10:07:23;;;;;;;29.88;19.60;;;18.10;99.90;;;;;;5010805;28;20065;-49
2022/08/31 10:10:07;;;;;;;28.95;18.67;;;18.00;99.90;;;;;;5011633;28;20069;-49
2022/08/31 10:13:02;;;;;;;32.20;19.58;;;17.90;99.90;;;;;;5012769;28;20085;-48
2022/08/31 10:15:35;;;;;;;34.80;20.10;;;17.80;99.90;;;;;;5009930;28;20061;-50
2022/08/31 10:18:14;;;;;;;37.28;19.63;;;17.80;99.90;;;;;;5012768;28;20092;-49
2022/08/31 10:20:50;;;;;;;37.13;20.85;;;17.70;99.90;;;;;;5006198;28;20045;-51
2022/08/31 10:23:32;;;;;;;34.40;21.02;;;17.60;99.90;;;;;;5007849;28;20050;-50
2022/08/31 10:26:06;;;;;;;32.30;20.05;;;17.60;99.90;;;;;;5010359;28;20045;-50
2022/08/31 10:28:47;;;;;;;37.40;21.05;;;17.60;99.90;;;;;;4995001;28;20053;-49
2022/08/31 10:31:22;;;;;;;39.15;21.52;;;17.60;99.90;;;;;;5009753;28;20049;-50
2022/08/31 10:36:48;;;;;;;35.30;21.15;;;17.60;99.90;;;;;;5011827;28;20057;-50
2022/08/31 10:39:22;;;;;;;34.15;22.17;;;17.60;99.90;;;;;;5008833;28;20084;-49
2022/08/31 10:41:49;;;;;;;39.08;23.55;;;17.60;99.90;;;;;;5012400;28;20049;-49
2022/08/31 10:44:57;;;;;;;39.83;23.67;;;17.60;99.90;;;;;;5003039;28;20058;-49
2022/08/31 10:47:27;;;;;;;34.65;21.60;;;17.50;99.90;;;;;;4914516;29;20062;-50
2022/08/31 10:50:02;;;;;;;34.90;21.52;;;17.50;99.90;;;;;;5002230;28;20387;-52
2022/08/31 10:52:40;;;;;;;34.75;21.15;;;17.40;99.90;;;;;;5011460;28;20212;-49
2022/08/31 10:55:11;;;;;;;31.20;20.85;;;17.40;99.90;;;;;;5011700;28;20050;-49
2022/08/31 10:57:51;;;;;;;36.63;21.42;;;17.30;99.90;;;;;;5006170;28;20038;-49
2022/08/31 11:00:41;;;;;;;33.80;21.88;;;17.20;99.90;;;;;;5011642;28;20514;-51
2022/08/31 11:03:26;;;;;;;35.33;21.52;;;17.20;99.90;;;;;;5011464;28;20052;-48
2022/08/31 11:06:03;;;;;;;36.03;21.73;;;17.20;99.90;;;;;;5009895;28;20368;-50
2022/08/31 11:08:38;;;;;;;36.55;23.17;;;17.20;99.90;;;;;;5011642;28;20049;-48
2022/08/31 11:11:09;;;;;;;42.47;24.90;;;17.10;99.90;;;;;;5011374;28;20038;-49
2022/08/31 11:14:00;;;;;;;41.60;24.05;;;17.10;99.90;;;;;;5010622;28;20097;-49
2022/08/31 11:16:50;;;;;;;44.30;24.90;;;17.10;99.90;;;;;;5011016;28;20049;-52
2022/08/31 11:19:29;;;;;;;41.70;24.70;;;17.10;99.90;;;;;;4999918;28;20522;-51
2022/08/31 11:21:59;;;;;;;48.95;24.98;;;17.10;99.90;;;;;;5010535;28;20093;-50
2022/08/31 11:24:31;;;;;;;44.85;25.42;;;17.10;99.90;;;;;;5011041;28;20563;-50
2022/08/31 11:27:16;;;;;;;46.22;26.35;;;17.10;99.90;;;;;;5011131;28;20064;-49
2022/08/31 11:29:59;;;;;;;41.88;25.67;;;17.00;99.90;;;;;;5011416;28;20034;-49
2022/08/31 11:33:06;;;;;;;37.72;23.73;;;17.00;99.90;;;;;;5029566;28;20055;-50
2022/08/31 11:35:48;;;;;;;37.85;23.05;;;16.90;99.90;;;;;;4925893;29;20048;-50
2022/08/31 11:38:47;;;;;;;40.22;23.38;;;16.70;99.90;;;;;;5021294;28;20064;-50
2022/08/31 11:41:45;;;;;;;37.63;23.40;;;16.50;99.90;;;;;;5009865;28;20050;-50
2022/08/31 11:44:28;;;;;;;41.37;24.50;;;16.40;99.90;;;;;;5027924;28;20087;-50
2022/08/31 11:47:36;;;;;;;46.72;25.10;;;16.30;99.90;;;;;;5030843;28;20622;-48
2022/08/31 11:50:37;;;;;;;51.70;26.60;;;16.20;99.90;;;;;;4920665;29;20413;-49
2022/08/31 11:57:33;;;;;;;45.38;23.90;;;16.30;99.90;;;;;;4899675;29;20051;-52
2022/08/31 12:00:45;;;;;;;44.63;24.15;;;16.30;99.90;;;;;;4932199;28;20117;-48
2022/08/31 12:03:49;;;;;;;52.58;24.88;;;16.30;99.90;;;;;;5005916;28;20053;-48
2022/08/31 12:06:26;;;;;;;44.25;25.25;;;16.30;99.90;;;;;;5011749;28;20065;-48
2022/08/31 12:09:10;;;;;;;43.17;24.95;;;16.30;99.90;;;;;;5022903;28;20038;-49
2022/08/31 12:12:10;;;;;;;47.25;27.63;;;16.40;99.90;;;;;;5013257;28;20046;-48
2022/08/31 12:14:36;;;;;;;39.63;24.17;;;16.50;99.90;;;;;;5007121;28;20109;-50
2022/08/31 12:17:21;;;;;;;36.78;22.73;;;16.70;99.90;;;;;;5013742;28;20411;-48
2022/08/31 12:20:15;;;;;;;35.47;22.13;;;16.90;99.90;;;;;;5015012;28;20046;-48
2022/08/31 12:26:36;;;;;;;41.45;23.15;;;17.00;99.90;;;;;;5014252;28;20057;-48
2022/08/31 12:29:19;;;;;;;37.80;22.50;;;17.00;99.90;;;;;;5014781;28;20113;-48
2022/08/31 12:32:09;;;;;;;38.40;22.67;;;16.90;99.90;;;;;;5018584;28;20489;-50
2022/08/31 12:34:43;;;;;;;33.05;20.05;;;16.90;99.90;;;;;;5021383;28;20525;-50
2022/08/31 12:37:37;;;;;;;28.58;18.52;;;16.90;99.90;;;;;;5021121;28;20064;-48
2022/08/31 12:40:15;;;;;;;28.98;18.38;;;17.00;99.90;;;;;;5012030;28;20073;-48
2022/08/31 12:43:01;;;;;;;27.42;18.13;;;17.10;99.90;;;;;;5014605;28;20108;-48
2022/08/31 12:45:41;;;;;;;27.23;16.15;;;17.20;99.90;;;;;;5014987;28;20049;-48
2022/08/31 12:48:50;;;;;;;24.88;16.40;;;17.20;99.90;;;;;;5017354;28;20486;-48
2022/08/31 12:51:34;;;;;;;26.13;16.35;;;17.20;99.90;;;;;;4992645;28;20077;-48
2022/08/31 12:54:34;;;;;;;27.40;15.80;;;17.20;99.90;;;;;;5017638;28;20038;-49
2022/08/31 12:57:22;;;;;;;22.08;14.25;;;17.20;99.90;;;;;;5013193;28;20092;-49
2022/08/31 13:00:10;;;;;;;23.55;16.27;;;17.20;99.90;;;;;;5013156;28;20046;-48
2022/08/31 13:02:42;;;;;;;22.52;14.65;;;17.20;99.90;;;;;;5014262;28;20065;-48
2022/08/31 13:05:16;;;;;;;22.40;15.55;;;17.20;99.90;;;;;;5013134;28;20193;-48
2022/08/31 13:07:43;;;;;;;23.25;15.38;;;17.20;99.90;;;;;;5017002;28;20040;-48
2022/08/31 13:10:22;;;;;;;22.27;13.30;;;17.20;99.90;;;;;;5016791;28;20088;-48
2022/08/31 13:12:59;;;;;;;22.15;13.43;;;17.10;99.90;;;;;;4995636;28;20514;-48
2022/08/31 13:15:31;;;;;;;20.08;12.30;;;17.00;99.90;;;;;;5013573;28;20050;-48
2022/08/31 13:18:21;;;;;;;20.33;12.85;;;16.90;99.90;;;;;;5012549;28;20034;-48
2022/08/31 13:20:53;;;;;;;19.25;12.70;;;16.90;99.90;;;;;;5013083;28;20050;-48
2022/08/31 13:23:33;;;;;;;14.90;9.65;;;16.90;99.90;;;;;;5013889;28;20108;-48
2022/08/31 13:26:19;;;;;;;17.48;11.15;;;16.90;99.90;;;;;;5019198;28;20052;-48
2022/08/31 13:28:53;;;;;;;13.50;10.30;;;16.70;99.90;;;;;;5019797;28;20046;-48
2022/08/31 13:31:26;;;;;;;14.93;10.10;;;16.60;99.90;;;;;;5013396;28;20549;-48
2022/08/31 13:34:01;;;;;;;15.35;9.25;;;16.50;99.90;;;;;;5013000;28;20046;-48
2022/08/31 13:36:36;;;;;;;12.18;8.27;;;16.40;99.90;;;;;;5019876;28;20034;-48
2022/08/31 13:39:12;;;;;;;14.13;8.45;;;16.30;99.90;;;;;;5013339;28;20072;-49
2022/08/31 13:42:05;;;;;;;11.55;8.77;;;16.30;99.90;;;;;;5013049;28;20061;-48
2022/08/31 13:44:37;;;;;;;16.23;11.13;;;16.30;99.90;;;;;;5010740;28;20088;-48